Time;durP1;ratioP1;P1;durP2;ratioP2;P2;SDS_P1;SDS_P2;PMS_P1;PMS_P2;Temp;Humidity;BMP_temperature;BMP_pressure;BME280_temperature;BME280_humidity;BME280_pressure;Samples;Min_cycle;Max_cycle;Signal;HPM_P1;HPM_P2
2022/01/30 00:01:46;;;;;;;;;;;5.90;99.90;;;;;;4942132;28;19927;-83
2022/01/30 00:04:13;;;;;;;;;;;5.80;99.90;;;;;;4758064;29;19941;-84
2022/01/30 00:06:40;;;;;;;;;;;5.70;99.90;;;;;;4552239;30;19943;-84
2022/01/30 00:14:15;;;;;;;;;;;5.70;99.90;;;;;;5184646;27;19926;-82
2022/01/30 00:16:42;;;;;;;;;;;5.60;99.90;;;;;;5128906;27;19923;-80
2022/01/30 00:19:17;;;;;;;;;;;5.60;99.90;;;;;;5133820;27;19931;-81
2022/01/30 00:21:48;;;;;;;;;;;5.70;99.90;;;;;;5018013;28;19925;-78
2022/01/30 00:24:21;;;;;;;;;;;5.70;99.90;;;;;;4951529;28;19929;-78
2022/01/30 00:26:48;;;;;;;;;;;5.70;99.90;;;;;;4799022;29;19930;-78
2022/01/30 00:29:15;;;;;;;;;;;5.80;99.90;;;;;;4568561;30;19935;-79
2022/01/30 00:39:10;;;;;;;;;;;5.80;99.90;;;;;;5184403;27;19925;-81
2022/01/30 00:41:37;;;;;;;;;;;6.00;99.90;;;;;;5131886;27;19923;-80
2022/01/30 00:44:04;;;;;;;;;;;6.10;99.90;;;;;;5113827;28;19935;-81
2022/01/30 00:46:31;;;;;;;;;;;6.10;99.90;;;;;;5090238;28;19935;-81
2022/01/30 00:48:58;;;;;;;;;;;6.10;99.90;;;;;;4963879;28;19932;-83
2022/01/30 00:51:24;;;;;;;;;;;6.20;99.90;;;;;;4749105;29;19932;-80
2022/01/30 00:53:51;;;;;;;;;;;6.20;99.90;;;;;;4465946;31;19939;-85
2022/01/30 00:59:40;;;;;;;;;;;6.20;99.90;;;;;;5176928;27;19926;-83
2022/01/30 01:02:07;;;;;;;;;;;6.10;99.90;;;;;;5136252;27;19931;-84
2022/01/30 01:04:34;;;;;;;;;;;5.90;99.90;;;;;;5099341;27;19932;-84
2022/01/30 01:07:00;;;;;;;;;;;5.90;99.90;;;;;;5097479;28;19935;-82
2022/01/30 01:09:35;;;;;;;;;;;5.90;99.90;;;;;;5081248;28;19929;-81
2022/01/30 01:25:24;;;;;;;;;;;6.10;99.90;;;;;;5094429;28;19931;-82
2022/01/30 01:27:50;;;;;;;;;;;6.10;99.90;;;;;;5090880;28;19930;-83
2022/01/30 01:30:17;;;;;;;;;;;6.10;99.90;;;;;;5055012;28;19932;-80
2022/01/30 01:32:44;;;;;;;;;;;6.10;99.90;;;;;;4963790;28;19934;-81
2022/01/30 01:35:10;;;;;;;;;;;6.20;99.90;;;;;;4802595;29;19930;-84
2022/01/30 01:37:37;;;;;;;;;;;6.30;99.90;;;;;;4612436;30;19934;-83
2022/01/30 01:45:07;;;;;;;;;;;6.30;99.90;;;;;;5178700;27;19926;-85
2022/01/30 01:47:34;;;;;;;;;;;6.30;99.90;;;;;;5143885;27;19933;-89
2022/01/30 01:50:01;;;;;;;;;;;6.30;99.90;;;;;;5120411;27;19942;-83
2022/01/30 01:52:30;;;;;;;;;;;6.20;99.90;;;;;;5041235;28;19932;-83
2022/01/30 01:54:58;;;;;;;;;;;6.30;99.90;;;;;;4963804;28;19935;-82
2022/01/30 01:57:25;;;;;;;;;;;6.30;99.90;;;;;;4822459;29;19941;-82
2022/01/30 02:00:20;;;;;;;;;;;6.30;99.90;;;;;;4472218;31;19947;-83
2022/01/30 02:07:29;;;;;;;;;;;6.40;99.90;;;;;;5179795;27;19941;-82
2022/01/30 02:09:59;;;;;;;;;;;6.20;99.90;;;;;;5128376;27;19928;-84
2022/01/30 02:12:32;;;;;;;;;;;6.20;99.90;;;;;;5112345;27;19923;-82
2022/01/30 02:15:13;;;;;;;;;;;6.00;99.90;;;;;;5114250;28;19924;-82
2022/01/30 02:28:37;;;;;;;;;;;5.90;99.90;;;;;;5174561;27;19927;-83
2022/01/30 02:31:08;;;;;;;;;;;5.80;99.90;;;;;;5146115;27;19931;-83
2022/01/30 02:33:34;;;;;;;;;;;5.90;99.90;;;;;;5092694;28;19924;-81
2022/01/30 02:36:01;;;;;;;;;;;6.00;99.90;;;;;;5046542;28;19929;-81
2022/01/30 02:38:28;;;;;;;;;;;6.20;99.90;;;;;;4960082;28;19932;-82
2022/01/30 02:40:57;;;;;;;;;;;6.20;99.90;;;;;;4798725;29;19930;-83
2022/01/30 02:43:28;;;;;;;;;;;6.20;99.90;;;;;;4583806;30;19966;-80
2022/01/30 02:51:10;;;;;;;;;;;6.20;99.90;;;;;;5161957;27;19927;-82
2022/01/30 02:53:41;;;;;;;;;;;6.20;99.90;;;;;;5116850;28;19923;-84
2022/01/30 02:56:08;;;;;;;;;;;6.10;99.90;;;;;;5100226;28;19935;-80
2022/01/30 02:58:34;;;;;;;;;;;6.10;99.90;;;;;;5070972;28;19924;-80
2022/01/30 03:01:01;;;;;;;;;;;6.10;99.90;;;;;;5034385;28;19937;-86
2022/01/30 03:03:27;;;;;;;;;;;6.20;99.90;;;;;;4914339;28;19930;-81
2022/01/30 03:05:54;;;;;;;;;;;6.10;99.90;;;;;;4675399;30;19945;-81
2022/01/30 03:11:16;;;;;;;;;;;6.20;99.90;;;;;;5167177;27;19941;-83
2022/01/30 03:13:43;;;;;;;;;;;6.10;99.90;;;;;;5106972;28;19924;-84
2022/01/30 03:16:10;;;;;;;;;;;6.10;99.90;;;;;;5084096;28;19940;-82
2022/01/30 03:18:36;;;;;;;;;;;6.10;99.90;;;;;;5028287;28;19926;-85
2022/01/30 03:21:04;;;;;;;;;;;6.10;99.90;;;;;;4927337;28;19936;-84
2022/01/30 03:23:31;;;;;;;;;;;6.10;99.90;;;;;;4725476;29;19933;-81
2022/01/30 03:25:59;;;;;;;;;;;6.10;99.90;;;;;;4514580;31;19959;-79
2022/01/30 03:33:57;;;;;;;;;;;6.00;99.90;;;;;;5174956;27;19926;-81
2022/01/30 03:36:33;;;;;;;;;;;5.90;99.90;;;;;;5099098;27;19931;-81
2022/01/30 03:39:01;;;;;;;;;;;5.90;99.90;;;;;;5130088;27;19923;-81
2022/01/30 03:41:28;;;;;;;;;;;5.80;99.90;;;;;;5066940;28;19926;-84
2022/01/30 03:43:55;;;;;;;;;;;5.80;99.90;;;;;;4924612;28;19928;-83
2022/01/30 03:46:22;;;;;;;;;;;5.90;99.90;;;;;;4798681;29;20035;-84
2022/01/30 03:48:51;;;;;;;;;;;5.90;99.90;;;;;;4555283;30;19943;-84
2022/01/30 03:56:45;;;;;;;;;;;5.80;99.90;;;;;;5168032;27;19930;-83
2022/01/30 03:59:12;;;;;;;;;;;5.80;99.90;;;;;;5087477;27;19924;-85
2022/01/30 04:01:38;;;;;;;;;;;5.90;99.90;;;;;;5092626;28;19940;-83
2022/01/30 04:04:05;;;;;;;;;;;5.80;99.90;;;;;;5002566;28;19937;-85
2022/01/30 04:06:32;;;;;;;;;;;5.70;99.90;;;;;;4959649;28;19939;-83
2022/01/30 04:09:03;;;;;;;;;;;5.70;99.90;;;;;;4814732;29;19937;-83
2022/01/30 04:11:49;;;;;;;;;;;5.70;99.90;;;;;;4552620;30;19943;-82
2022/01/30 04:19:59;;;;;;;;;;;5.50;99.90;;;;;;5176776;27;19926;-81
2022/01/30 04:22:43;;;;;;;;;;;5.40;99.90;;;;;;5108529;28;19927;-81
2022/01/30 04:25:22;;;;;;;;;;;5.30;99.90;;;;;;5110343;28;19925;-83
2022/01/30 04:28:06;;;;;;;;;;;5.20;99.90;;;;;;5074416;28;19931;-82
2022/01/30 04:30:52;;;;;;;;;;;5.20;99.90;;;;;;4959747;28;19928;-85
2022/01/30 04:33:38;;;;;;;;;;;5.20;99.90;;;;;;4672625;29;19942;-86
2022/01/30 04:39:40;;;;;;;;;;;5.20;99.90;;;;;;5174044;27;19926;-83
2022/01/30 04:52:21;;;;;;;;;;;5.40;99.90;;;;;;4742016;29;19933;-81
2022/01/30 04:58:01;;;;;;;;;;;5.50;99.90;;;;;;5183826;27;19913;-86
2022/01/30 05:00:58;;;;;;;;;;;5.50;99.90;;;;;;5107677;27;19954;-82
2022/01/30 05:04:15;;;;;;;;;;;5.50;99.90;;;;;;5036738;28;19936;-84
2022/01/30 05:07:28;;;;;;;;;;;5.50;99.90;;;;;;4946490;28;19929;-83
2022/01/30 05:09:54;;;;;;;;;;;5.50;99.90;;;;;;4808248;29;19942;-82
2022/01/30 05:12:46;;;;;;;;;;;5.50;99.90;;;;;;4527819;31;19936;-79
2022/01/30 05:20:36;;;;;;;;;;;5.50;99.90;;;;;;5175146;27;19925;-83
2022/01/30 05:23:16;;;;;;;;;;;5.30;99.90;;;;;;5092772;28;19932;-82
2022/01/30 05:25:53;;;;;;;;;;;5.30;99.90;;;;;;5066043;28;19932;-79
2022/01/30 05:28:22;;;;;;;;;;;5.20;99.90;;;;;;4989557;28;19926;-79
2022/01/30 05:30:55;;;;;;;;;;;5.20;99.90;;;;;;4896026;29;19929;-80
2022/01/30 05:33:40;;;;;;;;;;;5.20;99.90;;;;;;4667173;30;19940;-79
2022/01/30 05:36:32;;;;;;;;;;;5.30;99.90;;;;;;4349450;32;19948;-79
2022/01/30 05:43:54;;;;;;;;;;;5.40;99.90;;;;;;5184179;27;19925;-82
2022/01/30 05:46:48;;;;;;;;;;;5.50;99.90;;;;;;5106748;27;19943;-80
2022/01/30 05:49:31;;;;;;;;;;;5.60;99.90;;;;;;5071156;28;19924;-83
2022/01/30 05:52:21;;;;;;;;;;;5.60;99.90;;;;;;5067216;28;19929;-82
2022/01/30 05:55:02;;;;;;;;;;;5.50;99.90;;;;;;4975878;28;19928;-80
2022/01/30 05:57:29;;;;;;;;;;;5.50;99.90;;;;;;4751316;29;19940;-82
2022/01/30 06:02:37;;;;;;;;;;;5.40;99.90;;;;;;5156797;27;19926;-85
2022/01/30 06:05:04;;;;;;;;;;;5.40;99.90;;;;;;5120209;27;19923;-82
2022/01/30 06:07:32;;;;;;;;;;;5.40;99.90;;;;;;5095386;28;19939;-84
2022/01/30 06:09:59;;;;;;;;;;;5.40;99.90;;;;;;5087380;28;19924;-81
2022/01/30 06:12:25;;;;;;;;;;;5.40;99.90;;;;;;5018023;28;19933;-78
2022/01/30 06:14:52;;;;;;;;;;;5.50;99.90;;;;;;4882766;29;19935;-79
2022/01/30 06:17:22;;;;;;;;;;;5.50;99.90;;;;;;4658995;30;19942;-78
2022/01/30 06:25:22;;;;;;;;;;;5.60;99.90;;;;;;5178830;27;19926;-80
2022/01/30 06:28:01;;;;;;;;;;;5.60;99.90;;;;;;5146780;27;19931;-80
2022/01/30 06:30:46;;;;;;;;;;;5.60;99.90;;;;;;5146108;27;19938;-79
2022/01/30 06:33:36;;;;;;;;;;;5.60;99.90;;;;;;5111454;28;19924;-79
2022/01/30 06:36:38;;;;;;;;;;;5.60;99.90;;;;;;4949749;28;19944;-84
2022/01/30 06:39:18;;;;;;;;;;;5.60;99.90;;;;;;4731873;29;19933;-81
2022/01/30 06:44:43;;;;;;;;;;;5.70;99.90;;;;;;5174260;27;19926;-85
2022/01/30 06:47:28;;;;;;;;;;;5.60;99.90;;;;;;5133563;27;19923;-84
2022/01/30 06:50:30;;;;;;;;;;;5.60;99.90;;;;;;5130904;27;19923;-84
2022/01/30 06:53:26;;;;;;;;;;;5.70;99.90;;;;;;5027790;28;19926;-85
2022/01/30 06:56:12;;;;;;;;;;;5.70;99.90;;;;;;4934941;28;19934;-84
2022/01/30 06:58:57;;;;;;;;;;;5.70;99.90;;;;;;4795883;29;19931;-80
2022/01/30 07:07:24;;;;;;;;;;;5.80;99.90;;;;;;5173554;27;19926;-81
2022/01/30 07:09:51;;;;;;;;;;;5.80;99.90;;;;;;5110863;28;19935;-83
2022/01/30 07:12:18;;;;;;;;;;;5.90;99.90;;;;;;5070115;28;19931;-82
2022/01/30 07:14:44;;;;;;;;;;;5.90;99.90;;;;;;5024541;28;19935;-81
2022/01/30 07:17:11;;;;;;;;;;;5.90;99.90;;;;;;4962871;28;19939;-81
2022/01/30 07:19:37;;;;;;;;;;;6.00;99.90;;;;;;4730397;30;19932;-80
2022/01/30 07:22:04;;;;;;;;;;;6.00;99.90;;;;;;4489109;30;19938;-80
2022/01/30 07:29:35;;;;;;;;;;;6.00;99.90;;;;;;5173373;27;19926;-85
2022/01/30 07:32:02;;;;;;;;;;;6.00;99.90;;;;;;5124143;27;19923;-80
2022/01/30 07:34:29;;;;;;;;;;;6.10;99.90;;;;;;5096045;27;19932;-86
2022/01/30 07:36:57;;;;;;;;;;;6.00;99.90;;;;;;5066155;28;19932;-85
2022/01/30 07:39:28;;;;;;;;;;;6.10;99.90;;;;;;5006298;28;19926;-87
2022/01/30 07:41:54;;;;;;;;;;;6.10;99.90;;;;;;4806450;29;19931;-80
2022/01/30 07:44:23;;;;;;;;;;;6.10;99.90;;;;;;4592199;30;19942;-80
2022/01/30 07:51:55;;;;;;;;;;;6.10;99.90;;;;;;5162883;27;19926;-81
2022/01/30 07:54:22;;;;;;;;;;;6.10;99.90;;;;;;5116500;27;19930;-81
2022/01/30 07:56:48;;;;;;;;;;;6.10;99.90;;;;;;5109871;28;19938;-80
2022/01/30 07:59:15;;;;;;;;;;;6.10;99.90;;;;;;5073173;28;19932;-82
2022/01/30 08:01:42;;;;;;;;;;;6.20;99.90;;;;;;4969392;28;19928;-79
2022/01/30 08:04:08;;;;;;;;;;;6.10;99.90;;;;;;4753836;29;19940;-79
2022/01/30 08:06:35;;;;;;;;;;;6.10;99.90;;;;;;4533877;31;19937;-79
2022/01/30 08:14:07;;;;;;;;;;;6.10;99.90;;;;;;5180219;27;19925;-80
2022/01/30 08:16:33;;;;;;;;;;;6.20;99.90;;;;;;5147201;27;19923;-79
2022/01/30 08:19:00;;;;;;;;;;;6.10;99.90;;;;;;5140377;27;19924;-82
2022/01/30 08:21:26;;;;;;;;;;;6.20;99.90;;;;;;5104850;28;19935;-84
2022/01/30 08:23:53;;;;;;;;;;;6.20;99.90;;;;;;5037389;28;19925;-81
2022/01/30 08:26:19;;;;;;;;;;;6.20;99.90;;;;;;4906688;28;19929;-81
2022/01/30 08:28:46;;;;;;;;;;;6.20;99.90;;;;;;4700386;29;19942;-79
2022/01/30 08:36:17;;;;;;;;;;;6.20;99.90;;;;;;5176394;27;19926;-80
2022/01/30 08:38:44;;;;;;;;;;;6.20;99.90;;;;;;5120918;27;19923;-79
2022/01/30 08:41:11;;;;;;;;;;;6.30;99.90;;;;;;5083396;28;19939;-81
2022/01/30 08:43:38;;;;;;;;;;;6.20;99.90;;;;;;5016679;28;19941;-80
2022/01/30 08:46:04;;;;;;;;;;;6.30;99.90;;;;;;4936702;28;19929;-83
2022/01/30 08:48:33;;;;;;;;;;;6.30;99.90;;;;;;4745316;29;19932;-86
2022/01/30 08:50:59;;;;;;;;;;;6.30;99.90;;;;;;4477418;30;19950;-84
2022/01/30 08:57:01;;;;;;;;;;;6.30;99.90;;;;;;5165004;27;19926;-87
2022/01/30 08:59:28;;;;;;;;;;;6.30;99.90;;;;;;5094826;28;19947;-87
2022/01/30 09:01:55;;;;;;;;;;;6.30;99.90;;;;;;5086809;28;19932;-87
2022/01/30 09:04:21;;;;;;;;;;;6.40;99.90;;;;;;5027957;28;19926;-82
2022/01/30 09:06:48;;;;;;;;;;;6.40;99.90;;;;;;5034481;28;19936;-80
2022/01/30 09:09:14;;;;;;;;;;;6.50;99.90;;;;;;4891691;28;19937;-80
2022/01/30 09:11:41;;;;;;;;;;;6.40;99.90;;;;;;4716460;29;19932;-83
2022/01/30 09:17:15;;;;;;;;;;;6.60;99.90;;;;;;5163978;27;19926;-81
2022/01/30 09:19:42;;;;;;;;;;;6.60;99.90;;;;;;5106488;28;19924;-82
2022/01/30 09:22:09;;;;;;;;;;;6.60;99.90;;;;;;5081373;28;19924;-79
2022/01/30 09:24:37;;;;;;;;;;;6.70;99.90;;;;;;5067501;28;19948;-79
2022/01/30 09:27:04;;;;;;;;;;;6.70;99.90;;;;;;4971742;28;19928;-79
2022/01/30 09:29:31;;;;;;;;;;;6.70;99.90;;;;;;4832068;29;19930;-82
2022/01/30 09:31:58;;;;;;;;;;;6.70;99.90;;;;;;4564072;30;19936;-82
2022/01/30 09:39:26;;;;;;;;;;;6.80;99.90;;;;;;5149632;27;19926;-79
2022/01/30 09:41:53;;;;;;;;;;;6.80;99.90;;;;;;5089942;28;19932;-82
2022/01/30 09:44:20;;;;;;;;;;;6.80;99.90;;;;;;5069585;28;19928;-83
2022/01/30 09:46:47;;;;;;;;;;;6.80;99.90;;;;;;5049472;28;19925;-81
2022/01/30 09:49:14;;;;;;;;;;;6.80;99.90;;;;;;4971125;28;19950;-80
2022/01/30 09:51:43;;;;;;;;;;;6.70;99.90;;;;;;4786747;29;19931;-80
2022/01/30 09:54:11;;;;;;;;;;;6.70;99.90;;;;;;4512554;31;19937;-83
2022/01/30 10:01:44;;;;;;;;;;;6.70;99.90;;;;;;5158519;27;19930;-82
2022/01/30 10:04:11;;;;;;;;;;;6.70;99.90;;;;;;5112428;27;19930;-81
2022/01/30 10:06:53;;;;;;;;;;;6.80;99.90;;;;;;5073400;28;19932;-82
2022/01/30 10:09:23;;;;;;;;;;;6.70;99.90;;;;;;5023504;28;19933;-80
2022/01/30 10:11:50;;;;;;;;;;;6.70;99.90;;;;;;5007579;28;19934;-83
2022/01/30 10:14:16;;;;;;;;;;;6.70;99.90;;;;;;4886806;28;19936;-83
2022/01/30 10:16:44;;;;;;;;;;;6.70;99.90;;;;;;4577372;30;19937;-83
2022/01/30 10:24:20;;;;;;;;;;;6.70;99.90;;;;;;5152241;27;19925;-83
2022/01/30 10:26:47;;;;;;;;;;;6.80;99.90;;;;;;5097292;27;19924;-80
2022/01/30 10:29:17;;;;;;;;;;;6.80;99.90;;;;;;5109950;28;19942;-79
2022/01/30 10:31:56;;;;;;;;;;;6.80;99.90;;;;;;5036024;28;19948;-82
2022/01/30 10:34:22;;;;;;;;;;;6.80;99.90;;;;;;4880226;29;19929;-80
2022/01/30 10:36:49;;;;;;;;;;;6.80;99.90;;;;;;4735866;29;19932;-82
2022/01/30 10:39:22;;;;;;;;;;;6.90;99.90;;;;;;4459187;31;19946;-79
2022/01/30 10:46:55;;;;;;;;;;;7.00;99.90;;;;;;5178026;27;19926;-82
2022/01/30 10:49:22;;;;;;;;;;;7.10;99.90;;;;;;5120189;27;19923;-84
2022/01/30 10:51:54;;;;;;;;;;;7.00;99.90;;;;;;5123749;27;19925;-82
2022/01/30 10:54:21;;;;;;;;;;;7.00;99.90;;;;;;5084984;28;19931;-82
2022/01/30 10:56:47;;;;;;;;;;;7.00;99.90;;;;;;5007283;28;19926;-81
2022/01/30 10:59:14;;;;;;;;;;;7.00;99.90;;;;;;4811272;29;19938;-83
2022/01/30 11:01:42;;;;;;;;;;;6.90;99.90;;;;;;4576742;30;19942;-82
2022/01/30 11:08:20;;;;;;;;;;;6.90;99.90;;;;;;5153211;27;19926;-82
2022/01/30 11:10:47;;;;;;;;;;;6.90;99.90;;;;;;5067037;28;19923;-82
2022/01/30 11:13:24;;;;;;;;;;;6.90;99.90;;;;;;5056701;28;19925;-83
2022/01/30 11:16:54;;;;;;;;;;;6.90;99.90;;;;;;5004482;28;19926;-80
2022/01/30 11:18:38;;;;;;;;;;;6.90;99.90;;;;;;4890953;28;19935;-82
2022/01/30 11:21:04;;;;;;;;;;;6.90;99.90;;;;;;4620984;29;19942;-81
2022/01/30 11:23:32;;;;;;;;;;;7.00;99.90;;;;;;4355403;32;19955;-83
2022/01/30 11:31:04;;;;;;;;;;;7.00;99.90;;;;;;5170695;27;19930;-81
2022/01/30 11:33:31;;;;;;;;;;;7.00;99.90;;;;;;5119541;28;19924;-81
2022/01/30 11:35:58;;;;;;;;;;;7.00;99.90;;;;;;5096754;28;19932;-82
2022/01/30 11:38:25;;;;;;;;;;;7.00;99.90;;;;;;5070384;28;19924;-87
2022/01/30 11:41:08;;;;;;;;;;;7.00;99.90;;;;;;4958062;28;19932;-86
2022/01/30 11:43:35;;;;;;;;;;;7.10;99.90;;;;;;4776479;29;19915;-91
2022/01/30 11:46:20;;;;;;;;;;;7.20;99.90;;;;;;4634718;30;19934;-82
2022/01/30 11:53:48;;;;;;;;;;;7.40;99.90;;;;;;5189598;27;19930;-81
2022/01/30 11:56:30;;;;;;;;;;;7.40;99.90;;;;;;5151903;27;19923;-79
2022/01/30 11:58:58;;;;;;;;;;;7.30;99.90;;;;;;5096780;28;19928;-82
2022/01/30 12:01:36;;;;;;;;;;;7.30;99.90;;;;;;5017369;28;19926;-80
2022/01/30 12:04:08;;;;;;;;;;;7.30;99.90;;;;;;4920221;28;19934;-81
2022/01/30 12:06:35;;;;;;;;;;;7.30;99.90;;;;;;4736023;29;19932;-83
2022/01/30 12:09:03;;;;;;;;;;;7.30;99.90;;;;;;4430413;31;19943;-85
2022/01/30 12:17:02;;;;;;;;;;;7.30;99.90;;;;;;5174365;27;19926;-86
2022/01/30 12:19:45;;;;;;;;;;;7.30;99.90;;;;;;5097923;28;19924;-81
2022/01/30 12:22:30;;;;;;;;;;;7.30;99.90;;;;;;5066015;28;19925;-82
2022/01/30 12:25:19;;;;;;;;;;;7.30;99.90;;;;;;5002909;28;19925;-82
2022/01/30 12:27:49;;;;;;;;;;;7.30;99.90;;;;;;4894385;28;19949;-83
2022/01/30 12:30:29;;;;;;;;;;;7.20;99.90;;;;;;4712941;30;19932;-81
2022/01/30 12:32:56;;;;;;;;;;;7.20;99.90;;;;;;4435355;31;19959;-83
2022/01/30 12:40:25;;;;;;;;;;;7.20;99.90;;;;;;5175892;27;19927;-82
2022/01/30 12:42:51;;;;;;;;;;;7.20;99.90;;;;;;5125324;27;20023;-80
2022/01/30 12:45:18;;;;;;;;;;;7.20;99.90;;;;;;5125343;27;19968;-81
2022/01/30 12:47:45;;;;;;;;;;;7.20;99.90;;;;;;5119959;28;19928;-81
2022/01/30 12:50:12;;;;;;;;;;;7.30;99.90;;;;;;5041608;28;19928;-80
2022/01/30 12:52:39;;;;;;;;;;;7.30;99.90;;;;;;4812002;29;19937;-84
2022/01/30 12:55:10;;;;;;;;;;;7.30;99.90;;;;;;4567186;30;19934;-85
2022/01/30 13:02:52;;;;;;;;;;;7.30;99.90;;;;;;5156703;27;19926;-84
2022/01/30 13:05:19;;;;;;;;;;;7.40;99.90;;;;;;5103923;27;19924;-82
2022/01/30 13:07:51;;;;;;;;;;;7.40;99.90;;;;;;5126651;28;19950;-85
2022/01/30 13:10:17;;;;;;;;;;;7.40;99.90;;;;;;5038304;28;19926;-81
2022/01/30 13:12:45;;;;;;;;;;;7.50;99.90;;;;;;4930356;28;19935;-82
2022/01/30 13:15:13;;;;;;;;;;;7.60;99.90;;;;;;4765134;29;20026;-82
2022/01/30 13:17:40;;;;;;;;;;;7.70;99.90;;;;;;4486022;30;20037;-82
2022/01/30 13:25:14;;;;;;;;;;;7.60;99.90;;;;;;5176618;27;19926;-81
2022/01/30 13:27:42;;;;;;;;;;;7.60;99.90;;;;;;5139801;27;19934;-83
2022/01/30 13:30:09;;;;;;;;;;;7.60;99.90;;;;;;5119863;27;19930;-80
2022/01/30 13:32:37;;;;;;;;;;;7.70;99.90;;;;;;5084562;28;19929;-84
2022/01/30 13:35:09;;;;;;;;;;;7.70;99.90;;;;;;5025609;28;19926;-81
2022/01/30 13:37:38;;;;;;;;;;;7.70;99.90;;;;;;4848146;28;19939;-82
2022/01/30 13:40:14;;;;;;;;;;;7.60;99.90;;;;;;4565922;30;19935;-83
2022/01/30 13:46:59;;;;;;;;;;;7.60;99.90;;;;;;5175282;27;19925;-82
2022/01/30 13:49:25;;;;;;;;;;;7.60;99.90;;;;;;5111220;27;19924;-82
2022/01/30 13:52:05;;;;;;;;;;;7.60;99.90;;;;;;5059479;28;19924;-83
2022/01/30 13:54:32;;;;;;;;;;;7.50;99.90;;;;;;5046618;28;19925;-82
2022/01/30 13:57:03;;;;;;;;;;;7.50;99.90;;;;;;4950860;28;19936;-81
2022/01/30 13:59:29;;;;;;;;;;;7.40;99.90;;;;;;4734646;29;19935;-80
2022/01/30 14:01:57;;;;;;;;;;;7.30;99.90;;;;;;4553287;30;19943;-83
2022/01/30 14:09:42;;;;;;;;;;;7.20;99.90;;;;;;5174500;27;19926;-83
2022/01/30 14:12:10;;;;;;;;;;;7.10;99.90;;;;;;5101173;28;19935;-82
2022/01/30 14:14:39;;;;;;;;;;;7.20;99.90;;;;;;5065247;28;19925;-82
2022/01/30 14:17:07;;;;;;;;;;;7.20;99.90;;;;;;4997005;28;19948;-84
2022/01/30 14:19:40;;;;;;;;;;;7.20;99.90;;;;;;4912220;28;19929;-83
2022/01/30 14:22:12;;;;;;;;;;;7.20;99.90;;;;;;4716365;29;19931;-84
2022/01/30 14:24:46;;;;;;;;;;;7.20;99.90;;;;;;4512833;30;19945;-84
2022/01/30 14:32:13;;;;;;;;;;;7.10;99.90;;;;;;5161042;27;19926;-83
2022/01/30 14:34:40;;;;;;;;;;;7.00;99.90;;;;;;5117054;27;19923;-83
2022/01/30 14:37:09;;;;;;;;;;;6.90;99.90;;;;;;5113557;28;19932;-83
2022/01/30 14:39:36;;;;;;;;;;;6.80;99.90;;;;;;5062754;28;19932;-85
2022/01/30 14:42:05;;;;;;;;;;;6.80;99.90;;;;;;5002607;28;19926;-81
2022/01/30 14:44:31;;;;;;;;;;;6.80;99.90;;;;;;4856479;29;19940;-84
2022/01/30 14:46:58;;;;;;;;;;;6.70;99.90;;;;;;4589114;30;19935;-80
2022/01/30 14:53:26;;;;;;;;;;;6.70;99.90;;;;;;5185105;27;19925;-80
2022/01/30 14:55:52;;;;;;;;;;;6.70;99.90;;;;;;5137578;27;19919;-88
2022/01/30 14:58:21;;;;;;;;;;;6.70;99.90;;;;;;5106866;28;19932;-86
2022/01/30 15:00:48;;;;;;;;;;;6.70;99.90;;;;;;5073565;28;19932;-87
2022/01/30 15:03:15;;;;;;;;;;;6.60;99.90;;;;;;4998146;28;19937;-80
2022/01/30 15:05:42;;;;;;;;;;;6.60;99.90;;;;;;4816961;29;19939;-89
2022/01/30 15:08:09;;;;;;;;;;;6.60;99.90;;;;;;4543897;30;19938;-82
2022/01/30 15:15:39;;;;;;;;;;;6.60;99.90;;;;;;5177599;27;19926;-82
2022/01/30 15:18:12;;;;;;;;;;;6.50;99.90;;;;;;5142404;27;19930;-83
2022/01/30 15:20:39;;;;;;;;;;;6.50;99.90;;;;;;5138769;28;19930;-83
2022/01/30 15:23:05;;;;;;;;;;;6.50;99.90;;;;;;5074773;28;19924;-80
2022/01/30 15:25:32;;;;;;;;;;;6.50;99.90;;;;;;5032477;28;19941;-82
2022/01/30 15:28:00;;;;;;;;;;;6.50;99.90;;;;;;4848675;29;19930;-84
2022/01/30 15:30:27;;;;;;;;;;;6.40;99.90;;;;;;4649145;30;19959;-84
2022/01/30 15:37:59;;;;;;;;;;;6.40;99.90;;;;;;5176473;27;19926;-83
2022/01/30 15:40:26;;;;;;;;;;;6.40;99.90;;;;;;5146886;27;19923;-81
2022/01/30 15:42:53;;;;;;;;;;;6.40;99.90;;;;;;5119724;27;19931;-83
2022/01/30 15:50:49;;;;;;;;;;;6.30;99.90;;;;;;4783657;29;19938;-85
2022/01/30 15:53:17;;;;;;;;;;;6.30;99.90;;;;;;4465154;30;19962;-83
2022/01/30 16:00:49;;;;;;;;;;;6.20;99.90;;;;;;5157432;27;19926;-83
2022/01/30 16:03:15;;;;;;;;;;;6.20;99.90;;;;;;5092786;28;19932;-85
2022/01/30 16:05:42;;;;;;;;;;;6.20;99.90;;;;;;5048157;28;19932;-83
2022/01/30 16:08:11;;;;;;;;;;;6.10;99.90;;;;;;5046858;28;19926;-81
2022/01/30 16:10:38;;;;;;;;;;;6.20;99.90;;;;;;4956007;28;19938;-82
2022/01/30 16:15:45;;;;;;;;;;;6.20;99.90;;;;;;4553392;30;19937;-82
2022/01/30 16:23:19;;;;;;;;;;;6.10;99.90;;;;;;5169310;27;19926;-83
2022/01/30 16:25:46;;;;;;;;;;;6.10;99.90;;;;;;5099703;28;19931;-84
2022/01/30 16:28:13;;;;;;;;;;;6.10;99.90;;;;;;5105669;27;19931;-83
2022/01/30 16:30:39;;;;;;;;;;;6.10;99.90;;;;;;5081016;28;19925;-81
2022/01/30 16:33:06;;;;;;;;;;;6.10;99.90;;;;;;4974286;28;19957;-82
2022/01/30 16:35:33;;;;;;;;;;;6.10;99.90;;;;;;4815240;29;19930;-81
2022/01/30 16:38:00;;;;;;;;;;;6.10;99.90;;;;;;4526607;30;19938;-83
2022/01/30 16:45:37;;;;;;;;;;;6.00;99.90;;;;;;5174792;27;19926;-81
2022/01/30 16:48:14;;;;;;;;;;;6.00;99.90;;;;;;5115832;27;19931;-84
2022/01/30 16:50:42;;;;;;;;;;;5.90;99.90;;;;;;5096381;28;19933;-81
2022/01/30 16:53:08;;;;;;;;;;;6.00;99.90;;;;;;5029653;28;19933;-81
2022/01/30 16:55:35;;;;;;;;;;;6.00;99.90;;;;;;4923586;28;19928;-80
2022/01/30 16:58:01;;;;;;;;;;;5.90;99.90;;;;;;4747366;29;19939;-81
2022/01/30 17:00:28;;;;;;;;;;;5.90;99.90;;;;;;4478194;30;19940;-85
2022/01/30 17:08:02;;;;;;;;;;;5.90;99.90;;;;;;5165199;27;19926;-84
2022/01/30 17:10:29;;;;;;;;;;;5.80;99.90;;;;;;5134061;27;19923;-82
2022/01/30 17:13:00;;;;;;;;;;;5.80;99.90;;;;;;5092152;28;19933;-82
2022/01/30 17:15:34;;;;;;;;;;;5.80;99.90;;;;;;5042383;28;19933;-87
2022/01/30 17:18:01;;;;;;;;;;;5.80;99.90;;;;;;4946150;28;19952;-84
2022/01/30 17:20:28;;;;;;;;;;;5.80;99.90;;;;;;4752170;29;19938;-85
2022/01/30 17:35:47;;;;;;;;;;;5.70;99.90;;;;;;5188115;27;19925;-80
2022/01/30 17:42:32;;;;;;;;;;;5.60;99.90;;;;;;5134497;28;19916;-84
2022/01/30 17:44:59;;;;;;;;;;;5.60;99.90;;;;;;5098672;28;19931;-85
2022/01/30 17:47:38;;;;;;;;;;;5.60;99.90;;;;;;5094794;28;19931;-82
2022/01/30 17:50:13;;;;;;;;;;;5.60;99.90;;;;;;5047451;28;19925;-85
2022/01/30 17:55:49;;;;;;;;;;;5.60;99.90;;;;;;5016322;28;19926;-84
2022/01/30 17:58:17;;;;;;;;;;;5.60;99.90;;;;;;4873770;29;19936;-85
2022/01/30 18:03:43;;;;;;;;;;;5.60;99.90;;;;;;4510705;31;19944;-86
2022/01/30 18:14:02;;;;;;;;;;;5.50;99.90;;;;;;5156557;27;19946;-82
2022/01/30 18:16:30;;;;;;;;;;;5.50;99.90;;;;;;5118761;27;19924;-87
2022/01/30 18:18:57;;;;;;;;;;;5.40;99.90;;;;;;5114787;28;19937;-86
2022/01/30 18:21:25;;;;;;;;;;;5.40;99.90;;;;;;5092416;28;19947;-89
2022/01/30 18:23:51;;;;;;;;;;;5.40;99.90;;;;;;4991042;28;19933;-88
2022/01/30 18:26:19;;;;;;;;;;;5.40;99.90;;;;;;4858513;29;19930;-89
2022/01/30 18:28:49;;;;;;;;;;;5.40;99.90;;;;;;4632673;30;19934;-88
2022/01/30 18:35:10;;;;;;;;;;;5.30;99.90;;;;;;5180982;27;19922;-87
2022/01/30 18:37:44;;;;;;;;;;;5.40;99.90;;;;;;5117056;27;19946;-83
2022/01/30 18:40:24;;;;;;;;;;;5.30;99.90;;;;;;5098352;28;19931;-89
2022/01/30 18:42:51;;;;;;;;;;;5.40;99.90;;;;;;5052639;28;19925;-83
2022/01/30 18:45:18;;;;;;;;;;;5.30;99.90;;;;;;4964757;28;19928;-82
2022/01/30 18:47:44;;;;;;;;;;;5.30;99.90;;;;;;4718203;29;19969;-79
2022/01/30 18:50:17;;;;;;;;;;;5.30;99.90;;;;;;4465179;31;19939;-84
2022/01/30 18:57:51;;;;;;;;;;;5.30;99.90;;;;;;5158550;27;19930;-82
2022/01/30 19:00:18;;;;;;;;;;;5.30;99.90;;;;;;5113440;28;19928;-90
2022/01/30 19:02:46;;;;;;;;;;;5.30;99.90;;;;;;5099466;28;19924;-82
2022/01/30 19:05:12;;;;;;;;;;;5.30;99.90;;;;;;5089280;28;19932;-81
2022/01/30 19:07:50;;;;;;;;;;;5.30;99.90;;;;;;5023125;28;19933;-83
2022/01/30 19:10:17;;;;;;;;;;;5.20;99.90;;;;;;4803263;29;19932;-83
2022/01/30 19:15:43;;;;;;;;;;;5.20;99.90;;;;;;5316921;24;19947;-88
2022/01/30 19:22:37;;;;;;;;;;;5.10;99.90;;;;;;5161984;27;19926;-88
2022/01/30 19:25:05;;;;;;;;;;;5.20;99.90;;;;;;5146666;27;19923;-85
2022/01/30 19:27:33;;;;;;;;;;;5.20;99.90;;;;;;5119384;28;19924;-89
2022/01/30 19:30:00;;;;;;;;;;;5.10;99.90;;;;;;5078347;28;19947;-88
2022/01/30 19:32:35;;;;;;;;;;;5.10;99.90;;;;;;4970814;28;20002;-86
2022/01/30 19:35:06;;;;;;;;;;;5.10;99.90;;;;;;4732074;29;19939;-86
2022/01/30 19:37:34;;;;;;;;;;;5.20;99.90;;;;;;4494054;30;19937;-85
2022/01/30 19:55:36;;;;;;;;;;;5.10;99.90;;;;;;5150808;27;19927;-84
2022/01/30 19:58:08;;;;;;;;;;;5.10;99.90;;;;;;5107639;28;19935;-83
2022/01/30 20:00:48;;;;;;;;;;;5.10;99.90;;;;;;5058747;28;19925;-82
2022/01/30 20:03:29;;;;;;;;;;;5.10;99.90;;;;;;5032488;28;19933;-82
2022/01/30 20:06:03;;;;;;;;;;;5.00;99.90;;;;;;4967848;28;19934;-82
2022/01/30 20:08:31;;;;;;;;;;;5.00;99.90;;;;;;4928642;28;20748;-83
2022/01/30 20:15:54;;;;;;;;;;;5.00;99.90;;;;;;5169061;27;19926;-84